createdAt,value
2017-11-24T00:00:15.465Z,90.10
2017-11-24T00:02:43.041Z,90.00
2017-11-24T00:05:11.298Z,88.80
2017-11-24T00:07:38.804Z,88.80
2017-11-24T00:10:06.289Z,89.50
2017-11-24T00:12:33.765Z,88.60
2017-11-24T00:15:01.268Z,88.90
2017-11-24T00:17:28.748Z,89.50
2017-11-24T00:19:56.235Z,89.40
2017-11-24T00:22:24.104Z,89.30
2017-11-24T00:24:51.604Z,89.50
2017-11-24T00:27:19.079Z,89.50
2017-11-24T00:29:46.568Z,89.10
2017-11-24T00:32:14.063Z,89.40
2017-11-24T00:34:42.447Z,89.10
2017-11-24T00:37:10.726Z,89.00
2017-11-24T00:40:12.558Z,89.00
2017-11-24T00:42:40.053Z,89.20
2017-11-24T00:45:08.306Z,89.50
2017-11-24T00:47:35.832Z,89.50
2017-11-24T00:50:03.301Z,89.40
2017-11-24T00:52:30.772Z,90.20
2017-11-24T00:54:58.253Z,89.90
2017-11-24T00:57:26.492Z,90.00
2017-11-24T00:59:53.992Z,90.00
2017-11-24T01:02:22.229Z,90.30
2017-11-24T01:04:49.749Z,90.30
2017-11-24T01:07:17.256Z,90.50
2017-11-24T01:09:44.812Z,90.50
2017-11-24T01:12:12.317Z,90.70
2017-11-24T01:14:39.797Z,90.50
2017-11-24T01:17:07.273Z,90.60
2017-11-24T01:19:34.768Z,90.40
2017-11-24T01:22:03.025Z,90.70
2017-11-24T01:24:30.512Z,90.60
2017-11-24T01:26:58.752Z,90.80
2017-11-24T01:29:26.240Z,90.70
2017-11-24T01:31:54.476Z,90.80
2017-11-24T01:34:21.956Z,90.80
2017-11-24T01:36:49.443Z,91.50
2017-11-24T01:39:17.676Z,91.70
2017-11-24T01:41:45.169Z,91.70
2017-11-24T01:44:13.425Z,91.90
2017-11-24T01:46:40.913Z,91.90
2017-11-24T01:49:09.151Z,91.80
2017-11-24T01:51:36.625Z,91.80
2017-11-24T01:54:04.109Z,91.70
2017-11-24T01:56:33.150Z,91.60
2017-11-24T01:59:00.651Z,91.60
2017-11-24T02:01:28.892Z,91.90
2017-11-24T02:03:56.384Z,91.90
2017-11-24T02:06:24.628Z,91.80
2017-11-24T02:08:52.105Z,91.80
2017-11-24T02:11:19.592Z,91.80
2017-11-24T02:13:47.065Z,91.80
2017-11-24T02:16:14.561Z,91.50
2017-11-24T02:18:42.037Z,91.60
2017-11-24T02:21:09.551Z,91.80
2017-11-24T02:23:37.049Z,91.80
2017-11-24T02:26:04.524Z,92.00
2017-11-24T02:28:32.801Z,92.40
2017-11-24T02:31:01.044Z,92.60
2017-11-24T02:33:28.538Z,92.60
2017-11-24T02:35:56.792Z,93.00
2017-11-24T02:38:25.797Z,93.50
2017-11-24T02:40:53.269Z,93.50
2017-11-24T02:43:21.518Z,94.40
2017-11-24T02:45:49.005Z,94.40
2017-11-24T02:48:17.253Z,94.80
2017-11-24T02:50:44.785Z,94.80
2017-11-24T02:53:12.301Z,94.90
2017-11-24T02:55:40.567Z,95.30
2017-11-24T02:58:08.800Z,95.40
2017-11-24T03:00:36.274Z,95.40
2017-11-24T03:03:03.767Z,95.50
2017-11-24T03:05:32.017Z,95.90
2017-11-24T03:07:59.501Z,95.90
2017-11-24T03:10:27.774Z,96.10
2017-11-24T03:12:56.044Z,96.20
2017-11-24T03:15:24.296Z,96.30
2017-11-24T03:17:51.772Z,96.30
2017-11-24T03:20:19.256Z,96.60
2017-11-24T03:22:46.801Z,96.70
2017-11-24T03:25:15.056Z,97.00
2017-11-24T03:27:42.536Z,97.00
2017-11-24T03:30:10.807Z,97.50
2017-11-24T03:32:39.058Z,98.00
2017-11-24T03:35:06.545Z,98.00
2017-11-24T03:37:34.834Z,98.20
2017-11-24T03:40:02.328Z,98.20
2017-11-24T03:42:29.821Z,98.10
2017-11-24T03:44:57.338Z,98.20
2017-11-24T03:47:24.849Z,98.60
2017-11-24T03:49:52.329Z,98.90
2017-11-24T03:52:20.588Z,99.10
2017-11-24T03:54:48.849Z,99.10
2017-11-24T03:57:16.323Z,99.10
2017-11-24T03:59:44.618Z,99.50
2017-11-24T04:02:12.847Z,99.30
2017-11-24T04:04:40.829Z,99.30
2017-11-24T04:07:08.305Z,99.50
2017-11-24T04:09:36.554Z,99.70
2017-11-24T04:12:04.037Z,99.70
2017-11-24T04:14:32.276Z,99.90
2017-11-24T04:16:59.761Z,99.90
2017-11-24T04:19:28.001Z,99.90
2017-11-24T04:21:55.493Z,99.90
2017-11-24T04:24:23.745Z,99.80
2017-11-24T04:26:51.224Z,99.80
2017-11-24T04:29:18.706Z,99.80
2017-11-24T04:31:46.213Z,99.60
2017-11-24T04:34:13.708Z,99.80
2017-11-24T04:36:41.175Z,99.70
2017-11-24T04:39:09.449Z,99.80
2017-11-24T04:41:36.934Z,99.80
2017-11-24T04:44:04.428Z,99.90
2017-11-24T04:46:31.929Z,99.70
2017-11-24T04:49:00.176Z,99.70
2017-11-24T04:51:27.701Z,99.70
2017-11-24T04:53:55.180Z,99.60
2017-11-24T04:56:22.680Z,99.80
2017-11-24T04:58:50.929Z,99.80
2017-11-24T05:01:18.431Z,99.80
2017-11-24T05:03:46.672Z,99.70
2017-11-24T05:06:14.173Z,99.70
2017-11-24T05:08:42.434Z,99.80
2017-11-24T05:11:10.681Z,99.80
2017-11-24T05:13:38.176Z,99.80
2017-11-24T05:16:06.437Z,99.90
2017-11-24T05:18:34.716Z,99.90
2017-11-24T05:21:02.965Z,99.90
2017-11-24T05:23:30.444Z,99.90
2017-11-24T05:25:58.714Z,99.90
2017-11-24T05:28:26.967Z,99.90
2017-11-24T05:30:54.460Z,99.90
2017-11-24T05:33:22.708Z,99.90
2017-11-24T05:35:50.211Z,99.90
2017-11-24T05:38:18.456Z,99.90
2017-11-24T05:40:45.940Z,99.90
2017-11-24T05:43:14.197Z,99.90
2017-11-24T05:45:41.672Z,99.90
2017-11-24T05:48:09.935Z,99.90
2017-11-24T05:50:37.416Z,99.90
2017-11-24T05:53:05.664Z,99.90
2017-11-24T05:55:33.160Z,99.90
2017-11-24T05:58:00.649Z,99.60
2017-11-24T06:00:28.140Z,99.50
2017-11-24T06:02:56.468Z,99.80
2017-11-24T06:05:23.975Z,99.80
2017-11-24T06:07:51.452Z,99.80
2017-11-24T06:10:19.704Z,99.90
2017-11-24T06:12:47.202Z,99.90
2017-11-24T06:15:14.717Z,99.90
2017-11-24T06:17:42.216Z,99.90
2017-11-24T06:20:10.516Z,99.90
2017-11-24T06:22:38.016Z,99.90
2017-11-24T06:25:05.487Z,99.90
2017-11-24T06:27:33.776Z,99.90
2017-11-24T06:30:01.273Z,99.90
2017-11-24T06:32:28.743Z,99.90
2017-11-24T06:34:56.226Z,99.90
2017-11-24T06:37:23.696Z,99.90
2017-11-24T06:39:51.190Z,99.90
2017-11-24T06:42:18.664Z,99.90
2017-11-24T06:44:46.137Z,99.90
2017-11-24T06:47:13.614Z,99.90
2017-11-24T06:49:41.108Z,99.90
2017-11-24T06:52:09.361Z,99.90
2017-11-24T06:54:36.832Z,99.90
2017-11-24T06:57:05.114Z,99.90
2017-11-24T06:59:33.353Z,99.90
2017-11-24T07:02:00.831Z,99.90
2017-11-24T07:04:28.321Z,99.90
2017-11-24T07:06:55.797Z,99.90
2017-11-24T07:09:23.292Z,99.90
2017-11-24T07:11:50.768Z,99.90
2017-11-24T07:14:19.015Z,99.90
2017-11-24T07:16:46.503Z,99.90
2017-11-24T07:19:14.781Z,99.90
2017-11-24T07:21:42.278Z,99.90
2017-11-24T07:24:09.757Z,99.90
2017-11-24T07:26:37.228Z,99.90
2017-11-24T07:29:04.742Z,99.90
2017-11-24T07:31:32.212Z,99.90
2017-11-24T07:33:59.705Z,99.90
2017-11-24T07:36:27.185Z,99.90
2017-11-24T07:38:54.665Z,99.90
2017-11-24T07:41:22.907Z,99.90
2017-11-24T07:43:50.408Z,99.90
2017-11-24T07:46:17.883Z,99.90
2017-11-24T07:48:45.381Z,99.90
2017-11-24T07:51:12.864Z,99.90
2017-11-24T07:53:41.108Z,99.90
2017-11-24T07:56:08.607Z,99.90
2017-11-24T07:58:36.191Z,99.90
2017-11-24T08:01:03.713Z,99.90
2017-11-24T08:03:31.972Z,99.90
2017-11-24T08:05:59.465Z,99.90
2017-11-24T08:08:26.939Z,99.90
2017-11-24T08:10:54.420Z,99.90
2017-11-24T08:13:21.917Z,99.90
2017-11-24T08:15:50.212Z,99.90
2017-11-24T08:18:17.754Z,99.90
2017-11-24T08:20:46.010Z,99.90
2017-11-24T08:25:21.472Z,99.90
2017-11-24T08:27:48.949Z,99.90
2017-11-24T08:30:17.227Z,99.90
2017-11-24T08:32:45.645Z,99.90
2017-11-24T08:35:13.145Z,99.90
2017-11-24T08:37:40.617Z,99.90
2017-11-24T08:40:08.093Z,99.90
2017-11-24T08:42:36.357Z,99.90
2017-11-24T08:45:04.601Z,99.90
2017-11-24T08:47:37.877Z,99.90
2017-11-24T08:50:05.348Z,99.90
2017-11-24T08:52:32.841Z,99.90
2017-11-24T08:55:01.092Z,99.90
2017-11-24T08:57:28.614Z,99.90
2017-11-24T08:59:56.102Z,99.90
2017-11-24T09:02:23.588Z,99.90
2017-11-24T09:04:51.092Z,99.90
2017-11-24T09:07:18.577Z,99.90
2017-11-24T09:09:46.080Z,99.90
2017-11-24T09:12:14.333Z,99.90
2017-11-24T09:14:41.843Z,99.90
2017-11-24T09:17:09.338Z,99.90
2017-11-24T09:19:36.809Z,99.60
2017-11-24T09:22:04.338Z,99.50
2017-11-24T09:24:31.837Z,99.50
2017-11-24T09:26:59.336Z,99.70
2017-11-24T09:29:26.801Z,99.20
2017-11-24T09:31:54.296Z,99.90
2017-11-24T09:34:21.813Z,99.90
2017-11-24T09:36:49.372Z,99.90
2017-11-24T09:39:16.858Z,99.10
2017-11-24T11:27:25.932Z,98.40
2017-11-24T11:29:53.758Z,98.40
2017-11-24T11:32:21.261Z,98.10
2017-11-24T11:34:48.740Z,97.60
2017-11-24T11:37:17.005Z,97.70
2017-11-24T11:39:45.349Z,97.90
2017-11-24T11:42:12.840Z,97.70
2017-11-24T11:44:40.320Z,98.30
2017-11-24T11:47:08.577Z,97.50
2017-11-24T11:49:36.834Z,97.20
2017-11-24T11:52:04.322Z,97.20
2017-11-24T11:54:32.664Z,97.90
2017-11-24T11:57:00.130Z,97.90
2017-11-24T11:59:28.509Z,97.60
2017-11-24T12:01:56.775Z,97.00
2017-11-24T12:04:24.248Z,96.90
2017-11-24T12:06:52.335Z,96.20
2017-11-24T12:09:20.346Z,96.20
2017-11-24T12:11:47.873Z,96.30
2017-11-24T12:14:17.927Z,96.70
2017-11-24T12:16:45.913Z,96.70
2017-11-24T12:19:13.384Z,96.60
2017-11-24T12:21:40.881Z,96.50
2017-11-24T12:24:09.121Z,96.30
2017-11-24T12:26:38.006Z,96.30
2017-11-24T12:29:05.878Z,96.60
2017-11-24T12:31:33.392Z,97.50
2017-11-24T12:34:00.888Z,97.00
2017-11-24T12:36:28.404Z,97.60
2017-11-24T12:38:55.912Z,97.30
2017-11-24T12:41:23.393Z,97.10
2017-11-24T12:43:50.904Z,97.20
2017-11-24T12:46:18.378Z,97.00
2017-11-24T12:48:45.843Z,97.30
2017-11-24T12:51:13.336Z,97.20
2017-11-24T12:53:41.577Z,97.10
2017-11-24T12:56:09.082Z,97.10
2017-11-24T12:58:37.337Z,96.60
2017-11-24T13:01:05.757Z,97.30
2017-11-24T13:03:33.244Z,97.30
2017-11-24T13:06:00.726Z,96.50
2017-11-24T13:08:28.209Z,96.80
2017-11-24T13:10:56.446Z,97.00
2017-11-24T13:13:23.928Z,97.20
2017-11-24T13:15:51.397Z,97.30
2017-11-24T13:18:19.680Z,96.80
2017-11-24T13:20:47.928Z,96.60
2017-11-24T13:23:15.406Z,96.50
2017-11-24T13:25:43.663Z,97.30
2017-11-24T13:28:11.160Z,97.30
2017-11-24T13:30:38.656Z,96.60
2017-11-24T13:33:06.137Z,96.60
2017-11-24T13:35:33.629Z,96.90
2017-11-24T13:38:01.100Z,97.30
2017-11-24T13:40:28.578Z,96.80
2017-11-24T13:42:56.069Z,96.80
2017-11-24T13:45:23.550Z,96.80
2017-11-24T13:47:51.821Z,96.90
2017-11-24T13:50:20.061Z,96.60
2017-11-24T13:52:47.570Z,96.60
2017-11-24T13:55:15.805Z,96.60
2017-11-24T13:57:43.382Z,96.60
2017-11-24T14:00:10.888Z,95.80
2017-11-24T14:02:38.416Z,96.20
2017-11-24T14:05:06.753Z,95.50
2017-11-24T14:07:34.253Z,95.40
2017-11-24T14:10:02.529Z,95.50
2017-11-24T14:12:30.795Z,95.60
2017-11-24T14:14:58.295Z,95.60
2017-11-24T14:17:25.771Z,95.60
2017-11-24T14:19:53.332Z,96.80
2017-11-24T14:22:20.924Z,95.90
2017-11-24T14:24:49.230Z,95.80
2017-11-24T14:27:16.802Z,95.50
2017-11-24T14:29:44.320Z,96.30
2017-11-24T14:32:11.860Z,96.20
2017-11-24T14:34:39.352Z,95.90
2017-11-24T14:37:07.728Z,95.20
2017-11-24T14:39:36.020Z,95.50
2017-11-24T14:42:04.297Z,95.50
2017-11-24T14:44:32.560Z,95.00
2017-11-24T14:47:00.920Z,95.30
2017-11-24T14:49:28.540Z,95.30
2017-11-24T14:51:56.126Z,95.40
2017-11-24T14:54:23.613Z,95.40
2017-11-24T14:56:51.220Z,95.40
2017-11-24T14:59:19.888Z,95.90
2017-11-24T15:01:48.130Z,95.90
2017-11-24T15:04:15.684Z,95.80
2017-11-24T15:06:43.623Z,96.10
2017-11-24T15:09:11.230Z,95.10
2017-11-24T15:11:38.789Z,95.90
2017-11-24T15:14:06.273Z,95.70
2017-11-24T15:16:33.797Z,95.30
2017-11-24T15:19:01.293Z,95.90
2017-11-24T15:21:28.869Z,96.30
2017-11-24T15:23:56.366Z,96.10
2017-11-24T15:26:23.841Z,95.80
2017-11-24T15:28:51.361Z,95.90
2017-11-24T15:31:18.849Z,95.80
2017-11-24T15:33:47.249Z,95.90
2017-11-24T15:36:15.496Z,95.80
2017-11-24T15:38:43.045Z,95.80
2017-11-24T15:41:10.537Z,95.80
2017-11-24T15:43:38.793Z,95.60
2017-11-24T15:47:13.120Z,96.00
2017-11-24T15:49:40.625Z,96.00
2017-11-24T15:52:08.104Z,95.90
2017-11-24T15:54:35.600Z,96.60
2017-11-24T15:57:03.072Z,95.80
2017-11-24T15:59:31.332Z,95.70
2017-11-24T16:01:58.810Z,95.70
2017-11-24T16:04:27.061Z,95.50
2017-11-24T16:06:54.555Z,95.50
2017-11-24T16:09:22.823Z,95.40
2017-11-24T16:11:51.082Z,95.40
2017-11-24T16:14:18.558Z,95.40
2017-11-24T16:16:46.805Z,95.70
2017-11-24T16:19:14.276Z,95.80
2017-11-24T16:21:41.781Z,95.50
2017-11-24T16:24:09.271Z,95.60
2017-11-24T16:26:36.776Z,95.50
2017-11-24T16:29:05.170Z,95.40
2017-11-24T16:31:32.668Z,95.40
2017-11-24T16:34:00.160Z,95.20
2017-11-24T16:36:28.466Z,96.10
2017-11-24T16:38:56.036Z,96.00
2017-11-24T16:41:29.411Z,95.90
2017-11-24T16:43:57.775Z,95.90
2017-11-24T16:46:25.350Z,95.90
2017-11-24T16:48:53.622Z,95.90
2017-11-24T16:51:21.880Z,96.30
2017-11-24T16:53:49.356Z,96.30
2017-11-24T16:56:17.640Z,95.90
2017-11-24T16:58:45.161Z,95.80
2017-11-24T17:01:12.648Z,95.50
2017-11-24T17:03:40.892Z,96.00
2017-11-24T17:06:08.389Z,96.00
2017-11-24T17:08:36.666Z,95.50
2017-11-24T17:11:04.161Z,95.50
2017-11-24T17:13:31.643Z,95.60
2017-11-24T17:15:59.123Z,95.10
2017-11-24T17:18:26.617Z,95.30
2017-11-24T17:20:54.093Z,96.10
2017-11-24T17:23:21.607Z,94.70
2017-11-24T17:25:49.853Z,95.00
2017-11-24T17:28:17.339Z,95.00
2017-11-24T17:30:45.653Z,94.30
2017-11-24T17:33:13.137Z,94.40
2017-11-24T17:35:40.669Z,94.30
2017-11-24T17:38:08.153Z,94.50
2017-11-24T17:40:35.632Z,94.40
2017-11-24T17:43:03.109Z,94.70
2017-11-24T17:45:31.377Z,94.30
2017-11-24T17:47:59.620Z,94.60
2017-11-24T17:50:27.155Z,94.60
2017-11-24T17:52:54.649Z,95.00
2017-11-24T17:55:22.135Z,95.20
2017-11-24T17:57:50.399Z,95.70
2017-11-24T18:00:17.902Z,95.70
2017-11-24T18:02:45.468Z,95.70
2017-11-24T18:05:12.972Z,95.40
2017-11-24T18:07:40.477Z,95.10
2017-11-24T18:10:08.018Z,95.00
2017-11-24T18:12:37.188Z,95.30
2017-11-24T18:15:04.709Z,95.30
2017-11-24T18:17:32.193Z,95.60
2017-11-24T18:19:59.781Z,95.40
2017-11-24T18:22:29.102Z,95.10
2017-11-24T18:24:56.621Z,95.00
2017-11-24T18:27:24.104Z,95.00
2017-11-24T18:29:52.396Z,94.30
2017-11-24T18:32:20.652Z,94.90
2017-11-24T18:34:49.104Z,94.50
2017-11-24T18:37:16.632Z,94.80
2017-11-24T18:39:44.194Z,94.70
2017-11-24T18:42:11.730Z,94.30
2017-11-24T18:44:39.235Z,93.70
2017-11-24T18:47:06.817Z,93.60
2017-11-24T18:49:35.241Z,93.30
2017-11-24T18:52:02.791Z,93.20
2017-11-24T18:54:30.373Z,93.50
2017-11-24T18:56:57.983Z,92.90
2017-11-24T18:59:26.702Z,93.00
2017-11-24T19:01:54.268Z,92.90
2017-11-24T19:04:21.784Z,93.10
2017-11-24T19:06:50.320Z,93.70
2017-11-24T19:09:17.933Z,93.70
2017-11-24T19:11:45.408Z,93.70
2017-11-24T19:14:13.737Z,93.50
2017-11-24T19:16:41.282Z,93.50
2017-11-24T19:19:08.771Z,93.30
2017-11-24T19:21:36.372Z,92.70
2017-11-24T19:24:04.725Z,93.50
2017-11-24T19:26:32.411Z,93.40
2017-11-24T19:29:00.692Z,93.90
2017-11-24T19:31:28.937Z,93.80
2017-11-24T19:33:56.465Z,93.80
2017-11-24T19:36:23.949Z,93.80
2017-11-24T19:38:51.454Z,94.10
2017-11-24T19:41:18.948Z,93.80
2017-11-24T19:43:46.490Z,93.80
2017-11-24T19:46:14.005Z,93.60
2017-11-24T19:48:41.518Z,94.00
2017-11-24T19:51:09.013Z,93.70
2017-11-24T19:53:36.506Z,94.10
2017-11-24T19:56:04.775Z,93.10
2017-11-24T19:58:33.065Z,94.00
2017-11-24T20:01:00.562Z,94.00
2017-11-24T20:03:28.076Z,94.50
2017-11-24T20:05:55.656Z,94.30
2017-11-24T20:08:23.145Z,94.70
2017-11-24T20:10:50.648Z,95.20
2017-11-24T20:13:18.948Z,94.70
2017-11-24T20:15:46.436Z,94.70
2017-11-24T20:18:13.940Z,94.80
2017-11-24T20:20:41.460Z,95.20
2017-11-24T20:23:08.950Z,95.40
2017-11-24T20:25:37.196Z,95.60
2017-11-24T20:28:04.710Z,95.60
2017-11-24T20:30:32.204Z,96.00
2017-11-24T20:32:59.680Z,96.20
2017-11-24T20:35:27.264Z,96.10
2017-11-24T20:37:55.500Z,95.80
2017-11-24T20:40:22.984Z,95.80
2017-11-24T20:42:50.456Z,96.20
2017-11-24T20:45:18.728Z,96.60
2017-11-24T20:47:47.025Z,96.60
2017-11-24T20:50:14.512Z,96.60
2017-11-24T20:52:41.983Z,96.60
2017-11-24T20:55:09.641Z,96.90
2017-11-24T20:57:37.125Z,96.90
2017-11-24T21:00:04.624Z,97.20
2017-11-24T21:02:32.106Z,97.30
